createdAt,value
2018-09-13T00:00:47.550Z,17.80
2018-09-13T00:01:47.458Z,17.80
2018-09-13T00:02:47.368Z,19.00
2018-09-13T00:03:47.271Z,18.80
2018-09-13T00:04:47.297Z,19.80
2018-09-13T00:05:47.147Z,18.50
2018-09-13T00:06:46.995Z,20.70
2018-09-13T00:07:46.900Z,19.90
2018-09-13T00:08:46.811Z,18.60
2018-09-13T00:09:46.737Z,18.30
2018-09-13T00:10:46.626Z,19.40
2018-09-13T00:11:46.656Z,17.80
2018-09-13T00:12:46.441Z,19.00
2018-09-13T00:13:46.348Z,17.40
2018-09-13T00:14:46.274Z,20.80
2018-09-13T00:15:46.166Z,21.90
2018-09-13T00:16:46.076Z,20.00
2018-09-13T00:17:45.978Z,19.40
2018-09-13T00:18:45.991Z,20.40
2018-09-13T00:19:45.812Z,22.70
2018-09-13T00:20:45.703Z,23.40
2018-09-13T00:21:45.612Z,24.30
2018-09-13T00:22:45.518Z,23.90
2018-09-13T00:23:45.427Z,23.10
2018-09-13T00:24:45.355Z,22.40
2018-09-13T00:25:45.347Z,25.10
2018-09-13T00:26:45.151Z,22.70
2018-09-13T00:27:45.065Z,21.50
2018-09-13T00:28:44.961Z,21.70
2018-09-13T00:29:44.889Z,23.30
2018-09-13T00:30:44.778Z,24.60
2018-09-13T00:31:44.686Z,23.60
2018-09-13T00:32:44.694Z,20.10
2018-09-13T00:33:44.503Z,21.50
2018-09-13T00:34:44.423Z,23.50
2018-09-13T00:35:44.315Z,23.80
2018-09-13T00:36:44.222Z,24.30
2018-09-13T00:37:44.126Z,23.60
2018-09-13T00:38:44.039Z,22.60
2018-09-13T00:39:43.965Z,21.70
2018-09-13T00:40:43.852Z,25.40
2018-09-13T00:41:43.756Z,26.60
2018-09-13T00:42:43.664Z,28.00
2018-09-13T00:43:43.573Z,28.50
2018-09-13T00:44:43.498Z,27.00
2018-09-13T00:45:43.390Z,28.40
2018-09-13T00:46:43.397Z,28.20
2018-09-13T00:47:43.204Z,28.00
2018-09-13T00:48:43.107Z,27.50
2018-09-13T00:49:43.032Z,26.70
2018-09-13T00:50:42.921Z,25.40
2018-09-13T00:51:42.828Z,27.10
2018-09-13T00:52:42.743Z,27.00
2018-09-13T00:53:42.643Z,26.20
2018-09-13T00:54:42.566Z,27.20
2018-09-13T00:55:42.457Z,27.70
2018-09-13T00:56:42.366Z,27.90
2018-09-13T00:57:42.273Z,25.20
2018-09-13T00:58:42.181Z,29.20
2018-09-13T00:59:42.102Z,27.10
2018-09-13T01:00:41.993Z,24.30
2018-09-13T01:01:41.898Z,24.10
2018-09-13T01:02:41.807Z,24.50
2018-09-13T01:03:41.715Z,26.20
2018-09-13T01:04:41.642Z,27.10
2018-09-13T01:05:41.531Z,25.20
2018-09-13T01:06:41.434Z,24.10
2018-09-13T01:07:41.343Z,25.90
2018-09-13T01:08:41.252Z,26.50
2018-09-13T01:09:41.171Z,29.70
2018-09-13T01:10:41.062Z,40.30
2018-09-13T01:11:40.972Z,34.40
2018-09-13T01:12:40.890Z,30.20
2018-09-13T01:13:40.781Z,34.80
2018-09-13T01:14:40.691Z,32.70
2018-09-13T01:15:40.613Z,34.20
2018-09-13T01:16:40.503Z,32.80
2018-09-13T01:17:40.409Z,28.90
2018-09-13T01:18:40.324Z,29.00
2018-09-13T01:19:40.227Z,29.90
2018-09-13T01:20:40.146Z,31.00
2018-09-13T01:21:40.036Z,36.00
2018-09-13T01:22:39.943Z,34.30
2018-09-13T01:23:39.861Z,37.20
2018-09-13T01:24:39.760Z,32.90
2018-09-13T01:25:39.684Z,31.50
2018-09-13T01:26:39.572Z,25.50
2018-09-13T01:27:39.477Z,26.30
2018-09-13T01:28:39.392Z,25.40
2018-09-13T01:29:39.293Z,24.20
2018-09-13T01:30:39.218Z,25.40
2018-09-13T01:31:39.107Z,25.70
2018-09-13T01:32:39.017Z,25.30
2018-09-13T01:33:38.921Z,24.80
2018-09-13T01:34:38.828Z,25.20
2018-09-13T01:35:38.748Z,26.50
2018-09-13T01:36:38.640Z,26.90
2018-09-13T01:37:38.554Z,26.30
2018-09-13T01:38:38.458Z,28.70
2018-09-13T01:39:38.364Z,28.00
2018-09-13T01:40:38.284Z,31.10
2018-09-13T01:41:38.174Z,32.80
2018-09-13T01:42:38.079Z,32.20
2018-09-13T01:43:37.988Z,35.60
2018-09-13T01:44:37.894Z,31.00
2018-09-13T01:45:37.818Z,31.90
2018-09-13T01:46:37.708Z,31.50
2018-09-13T01:47:37.617Z,32.20
2018-09-13T01:48:37.524Z,30.90
2018-09-13T01:49:37.435Z,31.00
2018-09-13T01:50:37.360Z,30.20
2018-09-13T01:51:37.244Z,28.90
2018-09-13T01:52:37.151Z,27.80
2018-09-13T01:53:37.055Z,25.70
2018-09-13T01:54:36.967Z,27.20
2018-09-13T01:55:36.985Z,30.30
2018-09-13T01:56:36.780Z,30.40
2018-09-13T01:57:36.687Z,31.90
2018-09-13T01:58:36.593Z,29.90
2018-09-13T01:59:36.499Z,27.90
2018-09-13T02:00:36.423Z,26.30
2018-09-13T02:01:36.311Z,26.80
2018-09-13T02:02:36.337Z,27.20
2018-09-13T02:03:36.125Z,27.20
2018-09-13T02:04:36.036Z,27.40
2018-09-13T02:05:35.956Z,27.30
2018-09-13T02:06:35.847Z,26.80
2018-09-13T02:07:35.753Z,26.00
2018-09-13T02:08:35.664Z,27.10
2018-09-13T02:09:35.567Z,27.00
2018-09-13T02:10:35.492Z,25.70
2018-09-13T02:11:35.383Z,25.90
2018-09-13T02:12:35.288Z,26.80
2018-09-13T02:13:35.195Z,25.50
2018-09-13T02:14:35.151Z,24.30
2018-09-13T02:15:35.029Z,24.20
2018-09-13T02:16:34.921Z,24.50
2018-09-13T02:17:34.829Z,25.20
2018-09-13T02:18:34.734Z,26.00
2018-09-13T02:19:34.641Z,26.40
2018-09-13T02:20:34.564Z,25.80
2018-09-13T02:21:34.455Z,25.60
2018-09-13T02:22:34.365Z,25.80
2018-09-13T02:23:34.274Z,25.80
2018-09-13T02:24:34.181Z,26.80
2018-09-13T02:25:34.102Z,26.40
2018-09-13T02:26:33.997Z,26.00
2018-09-13T02:27:33.899Z,27.70
2018-09-13T02:28:33.810Z,29.80
2018-09-13T02:29:33.713Z,27.00
2018-09-13T02:30:33.640Z,27.90
2018-09-13T02:31:33.533Z,26.50
2018-09-13T02:32:33.441Z,27.40
2018-09-13T02:33:33.347Z,26.10
2018-09-13T02:34:33.253Z,27.10
2018-09-13T02:35:33.181Z,27.10
2018-09-13T02:36:33.072Z,26.30
2018-09-13T02:37:32.973Z,27.10
2018-09-13T02:38:32.883Z,26.90
2018-09-13T02:39:32.793Z,27.90
2018-09-13T02:40:32.725Z,28.00
2018-09-13T02:41:32.660Z,26.90
2018-09-13T02:42:32.517Z,27.80
2018-09-13T02:43:32.422Z,27.70
2018-09-13T02:44:32.330Z,29.80
2018-09-13T02:45:32.249Z,27.60
2018-09-13T02:46:32.146Z,31.20
2018-09-13T02:47:32.062Z,30.80
2018-09-13T02:48:31.958Z,31.00
2018-09-13T02:49:31.865Z,32.30
2018-09-13T02:50:31.778Z,30.90
2018-09-13T02:51:31.698Z,32.60
2018-09-13T02:52:31.688Z,31.70
2018-09-13T02:53:31.497Z,35.50
2018-09-13T02:54:31.405Z,36.60
2018-09-13T02:55:31.328Z,32.10
2018-09-13T02:56:31.220Z,55.00
2018-09-13T02:57:31.130Z,87.80
2018-09-13T02:58:31.036Z,68.60
2018-09-13T02:59:31.050Z,101.70
2018-09-13T03:00:30.868Z,74.90
2018-09-13T03:01:30.755Z,36.60
2018-09-13T03:02:30.667Z,41.70
2018-09-13T03:03:30.574Z,34.50
2018-09-13T03:04:30.491Z,42.10
2018-09-13T03:05:30.390Z,73.50
2018-09-13T03:06:30.418Z,71.60
2018-09-13T03:07:30.204Z,75.00
2018-09-13T03:08:30.115Z,93.30
2018-09-13T03:09:30.020Z,95.70
2018-09-13T03:10:29.930Z,53.10
2018-09-13T03:11:29.851Z,89.80
2018-09-13T03:12:29.744Z,45.40
2018-09-13T03:13:29.746Z,34.10
2018-09-13T03:14:29.557Z,49.60
2018-09-13T03:15:29.468Z,32.80
2018-09-13T03:16:29.390Z,35.50
2018-09-13T03:17:29.283Z,37.20
2018-09-13T03:18:29.190Z,72.00
2018-09-13T03:19:29.096Z,37.70
2018-09-13T03:20:29.109Z,41.90
2018-09-13T03:21:28.926Z,67.80
2018-09-13T03:22:28.820Z,39.60
2018-09-13T03:23:28.727Z,41.90
2018-09-13T03:24:28.633Z,45.30
2018-09-13T03:25:28.542Z,35.20
2018-09-13T03:26:28.468Z,35.30
2018-09-13T03:27:28.457Z,37.30
2018-09-13T03:28:28.263Z,35.90
2018-09-13T03:29:28.171Z,36.50
2018-09-13T03:30:28.078Z,39.20
2018-09-13T03:31:28.039Z,38.70
2018-09-13T03:32:27.930Z,36.80
2018-09-13T03:33:27.805Z,35.80
2018-09-13T03:34:27.808Z,37.50
2018-09-13T03:35:27.621Z,37.30
2018-09-13T03:36:27.543Z,37.40
2018-09-13T03:37:27.434Z,44.10
2018-09-13T03:38:27.340Z,39.20
2018-09-13T03:39:27.264Z,41.30
2018-09-13T03:40:27.155Z,39.00
2018-09-13T03:41:27.078Z,38.00
2018-09-13T03:42:26.973Z,39.40
2018-09-13T03:43:26.877Z,38.70
2018-09-13T03:44:26.787Z,40.60
2018-09-13T03:45:26.694Z,40.60
2018-09-13T03:46:26.616Z,40.90
2018-09-13T03:47:26.509Z,41.20
2018-09-13T03:48:26.518Z,40.00
2018-09-13T03:49:26.323Z,38.40
2018-09-13T03:50:26.231Z,41.50
2018-09-13T03:51:26.154Z,38.90
2018-09-13T03:52:26.049Z,42.00
2018-09-13T03:53:25.950Z,44.60
2018-09-13T03:54:25.862Z,40.60
2018-09-13T03:55:25.769Z,38.40
2018-09-13T03:56:25.698Z,39.70
2018-09-13T03:57:25.585Z,40.90
2018-09-13T03:58:25.489Z,37.10
2018-09-13T03:59:25.404Z,40.40
2018-09-13T04:00:25.305Z,41.30
2018-09-13T04:01:25.230Z,43.10
2018-09-13T04:02:25.124Z,42.20
2018-09-13T04:03:25.089Z,41.30
2018-09-13T04:04:24.938Z,43.20
2018-09-13T04:05:24.846Z,45.70
2018-09-13T04:06:24.766Z,47.60
2018-09-13T04:07:24.657Z,43.90
2018-09-13T04:08:24.570Z,43.10
2018-09-13T04:09:24.539Z,47.80
2018-09-13T04:10:24.380Z,41.30
2018-09-13T04:11:24.305Z,40.40
2018-09-13T04:12:24.198Z,40.50
2018-09-13T04:13:24.104Z,67.40
2018-09-13T04:14:24.014Z,41.10
2018-09-13T04:15:23.918Z,43.90
2018-09-13T04:16:23.847Z,49.00
2018-09-13T04:17:23.736Z,50.00
2018-09-13T04:18:23.641Z,47.20
2018-09-13T04:19:23.551Z,48.40
2018-09-13T04:20:23.456Z,80.40
2018-09-13T04:21:23.382Z,65.50
2018-09-13T04:22:23.271Z,73.20
2018-09-13T04:23:23.181Z,47.80
2018-09-13T04:24:23.089Z,74.20
2018-09-13T04:25:22.997Z,91.90
2018-09-13T04:26:22.921Z,82.10
2018-09-13T04:27:22.809Z,43.10
2018-09-13T04:28:22.719Z,78.40
2018-09-13T04:29:22.626Z,41.10
2018-09-13T04:30:22.534Z,91.00
2018-09-13T04:31:22.461Z,46.70
2018-09-13T04:32:22.350Z,44.10
2018-09-13T04:33:22.258Z,61.40
2018-09-13T04:34:22.166Z,123.30
2018-09-13T04:35:22.073Z,114.50
2018-09-13T04:36:21.998Z,47.10
2018-09-13T04:37:21.888Z,48.20
2018-09-13T04:38:21.801Z,47.90
2018-09-13T04:39:21.705Z,44.10
2018-09-13T04:40:21.609Z,46.00
2018-09-13T04:41:21.535Z,50.50
2018-09-13T04:42:21.427Z,42.50
2018-09-13T04:43:21.334Z,75.10
2018-09-13T04:44:21.293Z,42.10
2018-09-13T04:45:21.149Z,44.40
2018-09-13T04:46:21.059Z,82.70
2018-09-13T04:47:20.993Z,66.20
2018-09-13T04:48:20.871Z,87.30
2018-09-13T04:49:20.843Z,81.80
2018-09-13T04:50:20.691Z,53.50
2018-09-13T04:51:20.603Z,63.60
2018-09-13T04:52:20.520Z,47.80
2018-09-13T04:53:20.435Z,44.90
2018-09-13T04:54:20.319Z,44.90
2018-09-13T04:55:20.227Z,42.60
2018-09-13T04:56:20.140Z,42.70
2018-09-13T04:57:20.178Z,41.10
2018-09-13T04:58:19.950Z,40.80
2018-09-13T04:59:19.857Z,42.80
2018-09-13T05:00:19.803Z,40.80
2018-09-13T05:01:19.674Z,38.20
2018-09-13T05:02:19.597Z,38.90
2018-09-13T05:03:19.490Z,38.90
2018-09-13T05:04:19.491Z,38.30
2018-09-13T05:05:19.305Z,39.10
2018-09-13T05:06:19.216Z,36.50
2018-09-13T05:07:19.136Z,35.50
2018-09-13T05:08:19.029Z,36.00
2018-09-13T05:09:18.934Z,36.40
2018-09-13T05:10:18.844Z,36.90
2018-09-13T05:11:18.851Z,36.50
2018-09-13T05:12:18.678Z,38.60
2018-09-13T05:13:18.574Z,36.30
2018-09-13T05:14:18.474Z,36.00
2018-09-13T05:15:18.386Z,37.20
2018-09-13T05:16:18.289Z,34.00
2018-09-13T05:17:18.214Z,34.70
2018-09-13T05:18:18.221Z,35.00
2018-09-13T05:19:18.015Z,34.60
2018-09-13T05:20:17.923Z,34.20
2018-09-13T05:21:17.828Z,33.40
2018-09-13T05:22:17.756Z,33.70
2018-09-13T05:23:17.644Z,34.90
2018-09-13T05:24:17.560Z,33.60
2018-09-13T05:25:17.566Z,34.30
2018-09-13T05:26:17.370Z,35.10
2018-09-13T05:27:17.294Z,36.60
2018-09-13T05:28:17.184Z,36.90
2018-09-13T05:29:17.094Z,35.30
2018-09-13T05:30:17.006Z,36.50
2018-09-13T05:31:16.916Z,40.50
2018-09-13T05:32:16.940Z,37.60
2018-09-13T05:33:16.724Z,36.30
2018-09-13T05:34:16.630Z,36.60
2018-09-13T05:35:16.540Z,36.00
2018-09-13T05:36:16.453Z,37.10
2018-09-13T05:37:16.373Z,37.20
2018-09-13T05:38:16.266Z,37.80
2018-09-13T05:39:16.281Z,35.50
2018-09-13T05:40:16.079Z,34.00
2018-09-13T05:41:15.986Z,36.30
2018-09-13T05:42:15.913Z,34.80
2018-09-13T05:43:15.808Z,35.40
2018-09-13T05:44:15.714Z,36.90
2018-09-13T05:45:15.615Z,37.90
2018-09-13T05:46:15.637Z,38.70
2018-09-13T05:47:15.453Z,43.70
2018-09-13T05:48:15.343Z,41.60
2018-09-13T05:49:15.249Z,39.50
2018-09-13T05:50:15.161Z,41.10
2018-09-13T05:51:15.083Z,44.00
2018-09-13T05:52:14.994Z,41.50
2018-09-13T05:53:14.993Z,41.40
2018-09-13T05:54:14.791Z,37.80
2018-09-13T05:55:14.697Z,39.20
2018-09-13T05:56:14.610Z,37.90
2018-09-13T05:57:14.534Z,38.80
2018-09-13T05:58:14.420Z,40.80
2018-09-13T05:59:14.330Z,37.70
2018-09-13T06:00:14.357Z,35.20
2018-09-13T06:01:14.161Z,34.90
2018-09-13T06:02:14.074Z,35.70
2018-09-13T06:03:13.965Z,34.60
2018-09-13T06:04:13.871Z,34.70
2018-09-13T06:05:13.777Z,35.50
2018-09-13T06:06:13.686Z,36.80
2018-09-13T06:07:13.711Z,33.50
2018-09-13T06:08:13.502Z,33.80
2018-09-13T06:09:13.410Z,34.00
2018-09-13T06:10:13.319Z,32.80
2018-09-13T06:11:13.226Z,32.10
2018-09-13T06:12:13.153Z,31.80
2018-09-13T06:13:13.166Z,33.10
2018-09-13T06:14:12.949Z,32.60
2018-09-13T06:15:12.859Z,31.50
2018-09-13T06:16:12.764Z,32.60
2018-09-13T06:17:12.691Z,31.60
2018-09-13T06:18:12.582Z,31.40
2018-09-13T06:19:12.489Z,31.30
2018-09-13T06:20:12.400Z,30.80
2018-09-13T06:21:12.306Z,31.00
2018-09-13T06:22:12.233Z,30.30
2018-09-13T06:23:12.123Z,29.10
2018-09-13T06:24:12.035Z,28.80
2018-09-13T06:25:11.938Z,29.00
2018-09-13T06:26:11.847Z,29.40
2018-09-13T06:27:11.777Z,28.80
2018-09-13T06:28:11.664Z,28.20
2018-09-13T06:29:11.574Z,28.90
2018-09-13T06:30:11.480Z,30.20
2018-09-13T06:31:11.390Z,27.50
2018-09-13T06:32:11.299Z,27.10
2018-09-13T06:33:11.227Z,27.30
2018-09-13T06:34:11.113Z,28.50
2018-09-13T06:35:11.027Z,27.00
2018-09-13T06:36:10.931Z,27.30
2018-09-13T06:37:10.859Z,27.60
2018-09-13T06:38:10.753Z,28.80
2018-09-13T06:39:10.658Z,28.80
2018-09-13T06:40:10.565Z,28.20
2018-09-13T06:41:10.476Z,29.80
2018-09-13T06:42:10.410Z,29.20
2018-09-13T06:43:10.306Z,30.50
2018-09-13T06:44:10.199Z,29.90
2018-09-13T06:45:10.111Z,28.70
2018-09-13T06:46:10.020Z,28.30
2018-09-13T06:47:09.929Z,28.50
2018-09-13T06:48:09.863Z,28.30
2018-09-13T06:49:09.743Z,27.90
2018-09-13T06:50:09.653Z,28.10
2018-09-13T06:51:09.560Z,29.40
2018-09-13T06:52:09.470Z,30.40
2018-09-13T06:53:09.392Z,31.10
2018-09-13T06:54:09.347Z,31.00
2018-09-13T06:55:09.197Z,30.30
2018-09-13T06:56:09.105Z,30.90
2018-09-13T06:57:09.010Z,30.80
2018-09-13T06:58:08.939Z,30.50
2018-09-13T06:59:08.888Z,30.40
2018-09-13T07:00:08.738Z,29.90
2018-09-13T07:01:08.646Z,27.80
2018-09-13T07:02:08.558Z,31.00
2018-09-13T07:03:08.484Z,29.50
2018-09-13T07:04:08.378Z,27.60
2018-09-13T07:05:08.289Z,28.10
2018-09-13T07:06:08.192Z,27.50
2018-09-13T07:07:08.101Z,26.40
2018-09-13T07:08:08.029Z,28.00
2018-09-13T07:09:07.967Z,33.00
2018-09-13T07:10:07.829Z,34.80
2018-09-13T07:11:07.739Z,33.90
2018-09-13T07:12:07.649Z,34.20
2018-09-13T07:13:07.573Z,34.10
2018-09-13T07:14:07.466Z,34.20
2018-09-13T07:15:07.376Z,32.60
2018-09-13T07:16:07.285Z,32.40
2018-09-13T07:17:07.194Z,33.60
2018-09-13T07:18:07.120Z,34.80
2018-09-13T07:19:07.010Z,36.60
2018-09-13T07:20:06.921Z,34.80
2018-09-13T07:21:06.830Z,36.00
2018-09-13T07:22:06.739Z,35.30
2018-09-13T07:23:06.669Z,36.40
2018-09-13T07:24:06.561Z,34.30
2018-09-13T07:25:06.465Z,36.40
2018-09-13T07:26:06.377Z,34.60
2018-09-13T07:27:06.285Z,37.10
2018-09-13T07:28:06.211Z,34.90
2018-09-13T07:29:06.102Z,34.90
2018-09-13T07:30:06.117Z,34.70
2018-09-13T07:31:05.920Z,35.50
2018-09-13T07:32:05.833Z,34.80
2018-09-13T07:33:05.756Z,41.40
2018-09-13T07:34:05.649Z,36.30
2018-09-13T07:35:05.558Z,35.90
2018-09-13T07:36:05.465Z,36.80
2018-09-13T07:37:05.478Z,37.50
2018-09-13T07:38:05.299Z,39.10
2018-09-13T07:39:05.193Z,41.10
2018-09-13T07:40:05.101Z,41.40
2018-09-13T07:41:05.011Z,42.90
2018-09-13T07:42:04.920Z,44.10
2018-09-13T07:43:04.843Z,44.10
2018-09-13T07:44:04.836Z,43.10
2018-09-13T07:45:04.643Z,42.40
2018-09-13T07:46:04.554Z,41.50
2018-09-13T07:47:04.464Z,44.50
2018-09-13T07:48:04.389Z,41.20
2018-09-13T07:49:04.335Z,42.80
2018-09-13T07:50:04.188Z,42.90
2018-09-13T07:51:04.221Z,41.80
2018-09-13T07:52:04.004Z,44.10
2018-09-13T07:53:03.930Z,41.30
2018-09-13T07:54:03.824Z,42.20
2018-09-13T07:55:03.730Z,41.60
2018-09-13T07:56:03.641Z,41.10
2018-09-13T07:57:03.544Z,40.20
2018-09-13T07:58:03.576Z,40.20
2018-09-13T07:59:03.363Z,41.10
2018-09-13T08:00:03.273Z,41.50
2018-09-13T08:01:03.178Z,40.60
2018-09-13T08:02:03.089Z,39.50
2018-09-13T08:03:03.018Z,38.70
2018-09-13T08:04:02.906Z,37.70
2018-09-13T08:05:02.879Z,40.20
2018-09-13T08:06:02.723Z,37.90
2018-09-13T08:07:02.632Z,36.90
2018-09-13T08:08:02.564Z,36.40
2018-09-13T08:09:02.446Z,35.20
2018-09-13T08:10:02.360Z,34.20
2018-09-13T08:11:02.268Z,34.10
2018-09-13T08:12:02.333Z,32.80
2018-09-13T08:13:02.101Z,35.90
2018-09-13T08:14:01.994Z,34.30
2018-09-13T08:15:01.939Z,33.70
2018-09-13T08:16:01.881Z,33.90
2018-09-13T08:17:01.727Z,33.30
2018-09-13T08:18:01.630Z,30.50
2018-09-13T08:19:01.551Z,29.70
2018-09-13T08:20:01.446Z,29.40
2018-09-13T08:21:01.357Z,28.40
2018-09-13T08:22:01.309Z,30.30
2018-09-13T08:23:01.188Z,31.60
2018-09-13T08:24:01.083Z,29.80
2018-09-13T08:25:00.996Z,29.60
2018-09-13T08:26:00.904Z,29.60
2018-09-13T08:27:01.170Z,29.30
2018-09-13T08:28:00.724Z,29.00
2018-09-13T08:29:00.644Z,29.10
2018-09-13T08:30:00.540Z,27.50
2018-09-13T08:31:00.450Z,28.00
2018-09-13T08:32:00.362Z,27.30
2018-09-13T08:33:00.275Z,28.40
2018-09-13T08:34:00.287Z,28.80
2018-09-13T08:35:00.241Z,28.40
2018-09-13T08:36:00.002Z,27.90
2018-09-13T08:36:59.965Z,28.00
2018-09-13T08:37:59.821Z,27.60
2018-09-13T08:38:59.752Z,28.00
2018-09-13T08:39:59.722Z,28.60
2018-09-13T08:40:59.654Z,27.90
2018-09-13T08:41:59.462Z,28.90
2018-09-13T08:42:59.433Z,28.90
2018-09-13T08:43:59.300Z,29.80
2018-09-13T08:44:59.193Z,28.60
2018-09-13T08:45:59.104Z,26.90
2018-09-13T08:46:59.019Z,28.00
2018-09-13T08:47:59.031Z,28.30
2018-09-13T08:48:58.852Z,27.80
2018-09-13T08:49:58.747Z,28.00
2018-09-13T08:50:58.662Z,27.60
2018-09-13T08:51:58.605Z,26.70
2018-09-13T08:52:58.479Z,27.80
2018-09-13T08:53:58.409Z,26.50
2018-09-13T08:54:58.317Z,26.70
2018-09-13T08:55:58.219Z,24.70
2018-09-13T08:56:58.122Z,25.30
2018-09-13T08:57:58.034Z,25.10
2018-09-13T08:58:57.961Z,25.00
2018-09-13T08:59:57.858Z,27.20
2018-09-13T09:00:57.769Z,26.80
2018-09-13T09:01:57.776Z,27.00
2018-09-13T09:02:57.591Z,26.10
2018-09-13T09:03:57.517Z,25.00
2018-09-13T09:04:57.416Z,26.20
2018-09-13T09:05:57.335Z,26.50
2018-09-13T09:06:57.236Z,26.30
2018-09-13T09:07:57.148Z,25.30
2018-09-13T09:08:57.083Z,26.20
2018-09-13T09:09:56.968Z,25.60
2018-09-13T09:10:56.882Z,24.70
2018-09-13T09:11:56.869Z,23.90
2018-09-13T09:12:56.704Z,21.80
2018-09-13T09:13:56.636Z,22.40
2018-09-13T09:14:56.539Z,22.40
2018-09-13T09:15:56.441Z,21.10
2018-09-13T09:16:56.352Z,20.60
2018-09-13T09:17:56.266Z,19.50
2018-09-13T09:18:56.197Z,19.30
2018-09-13T09:19:56.092Z,20.00
2018-09-13T09:20:56.009Z,20.20
2018-09-13T09:21:55.916Z,19.20
2018-09-13T09:22:55.835Z,18.90
2018-09-13T09:23:55.767Z,18.00
2018-09-13T09:24:55.660Z,18.40
2018-09-13T09:25:55.573Z,18.00
2018-09-13T09:26:55.492Z,17.40
2018-09-13T09:27:55.400Z,18.60
2018-09-13T09:28:55.394Z,18.00
2018-09-13T09:29:55.252Z,16.30
2018-09-13T09:30:55.145Z,16.60
2018-09-13T09:31:55.057Z,15.90
2018-09-13T09:32:54.972Z,16.30
2018-09-13T09:33:54.905Z,15.90
2018-09-13T09:34:54.822Z,13.70
2018-09-13T09:35:54.720Z,13.60
2018-09-13T09:36:54.632Z,14.60
2018-09-13T09:37:54.549Z,14.40
2018-09-13T09:38:54.477Z,12.50
2018-09-13T09:39:54.397Z,11.80
2018-09-13T09:40:54.291Z,12.60
2018-09-13T09:41:54.204Z,12.90
2018-09-13T09:42:54.119Z,12.80
2018-09-13T09:43:54.049Z,12.70
2018-09-13T09:44:53.949Z,13.10
2018-09-13T09:45:53.864Z,13.20
2018-09-13T09:46:53.781Z,13.00
2018-09-13T09:47:53.704Z,11.60
2018-09-13T09:48:53.627Z,11.60
2018-09-13T09:49:53.527Z,12.70
2018-09-13T09:50:53.441Z,12.80
2018-09-13T09:51:53.423Z,12.20
2018-09-13T09:52:53.272Z,12.70
2018-09-13T09:53:53.210Z,12.00
2018-09-13T09:54:53.106Z,11.80
2018-09-13T09:55:53.023Z,11.40
2018-09-13T09:56:52.935Z,11.40
2018-09-13T09:57:52.879Z,11.70
2018-09-13T09:58:52.784Z,13.20
2018-09-13T09:59:52.685Z,13.30
2018-09-13T10:00:52.606Z,12.90
2018-09-13T10:01:52.518Z,13.30
2018-09-13T10:02:52.434Z,12.50
2018-09-13T10:03:52.365Z,11.50
2018-09-13T10:04:52.267Z,11.40
2018-09-13T10:05:52.183Z,12.40
2018-09-13T10:06:52.096Z,11.90
2018-09-13T10:07:52.014Z,12.10
2018-09-13T10:08:51.941Z,12.20
2018-09-13T10:09:51.862Z,12.50
2018-09-13T10:10:51.868Z,12.30
2018-09-13T10:11:51.677Z,11.30
2018-09-13T10:12:51.597Z,11.70
2018-09-13T10:13:51.508Z,11.40
2018-09-13T10:14:51.438Z,11.40
2018-09-13T10:15:51.336Z,16.30
2018-09-13T10:16:51.247Z,15.70
2018-09-13T10:17:51.268Z,16.50
2018-09-13T10:18:51.082Z,16.50
2018-09-13T10:19:51.016Z,15.80
2018-09-13T10:20:50.909Z,16.60
2018-09-13T10:21:50.825Z,16.20
2018-09-13T10:22:50.769Z,15.80
2018-09-13T10:23:50.664Z,15.60
2018-09-13T10:24:50.684Z,15.80
2018-09-13T10:25:50.480Z,15.30
2018-09-13T10:26:50.413Z,15.20
2018-09-13T10:27:50.317Z,14.80
2018-09-13T10:28:50.231Z,14.90
2018-09-13T10:29:50.236Z,14.80
2018-09-13T10:30:50.056Z,13.50
2018-09-13T10:31:50.089Z,12.90
2018-09-13T10:32:49.883Z,12.60
2018-09-13T10:33:49.794Z,13.00
2018-09-13T10:34:49.726Z,13.00
2018-09-13T10:35:49.623Z,12.80
2018-09-13T10:36:49.535Z,12.90
2018-09-13T10:37:49.451Z,12.50
2018-09-13T10:38:49.460Z,13.00
2018-09-13T10:39:49.294Z,13.10
2018-09-13T10:40:49.188Z,13.80
2018-09-13T10:41:49.102Z,14.20
2018-09-13T10:42:49.032Z,14.80
2018-09-13T10:43:48.930Z,15.10
2018-09-13T10:44:48.861Z,15.70
2018-09-13T10:45:48.856Z,15.30
2018-09-13T10:46:48.667Z,15.10
2018-09-13T10:47:56.485Z,14.40
2018-09-13T10:48:48.491Z,15.60
2018-09-13T10:49:48.421Z,15.20
2018-09-13T10:50:48.318Z,15.80
2018-09-13T10:51:48.231Z,14.80
2018-09-13T10:52:48.244Z,15.10
2018-09-13T10:53:48.054Z,15.50
2018-09-13T10:54:47.984Z,15.20
2018-09-13T10:55:47.901Z,15.30
2018-09-13T10:56:47.790Z,15.70
2018-09-13T10:57:47.702Z,15.70
2018-09-13T10:58:47.622Z,15.70
2018-09-13T10:59:47.652Z,14.90
2018-09-13T11:00:47.445Z,16.00
2018-09-13T11:01:47.353Z,16.10
2018-09-13T11:02:47.264Z,16.80
2018-09-13T11:03:47.193Z,18.30
2018-09-13T11:04:47.104Z,17.70
2018-09-13T11:05:47.060Z,18.00
2018-09-13T11:06:47.015Z,16.80
2018-09-13T11:07:46.828Z,16.80
2018-09-13T11:08:46.740Z,16.80
2018-09-13T11:09:46.667Z,16.40
2018-09-13T11:10:46.723Z,16.20
2018-09-13T11:11:46.474Z,16.30
2018-09-13T11:12:46.387Z,16.20
2018-09-13T11:13:46.298Z,15.80
2018-09-13T11:14:46.229Z,15.20
2018-09-13T11:15:46.125Z,15.30
2018-09-13T11:16:46.040Z,15.50
2018-09-13T11:17:45.948Z,16.20
2018-09-13T11:18:45.861Z,17.90
2018-09-13T11:19:45.790Z,20.80
2018-09-13T11:20:45.790Z,18.30
2018-09-13T11:21:45.660Z,19.50
2018-09-13T11:22:45.510Z,18.10
2018-09-13T11:23:45.425Z,17.00
2018-09-13T11:24:45.351Z,16.90
2018-09-13T11:25:45.253Z,15.80
2018-09-13T11:26:45.166Z,15.50
2018-09-13T11:27:45.074Z,14.50
2018-09-13T11:28:44.989Z,16.30
2018-09-13T11:29:44.923Z,15.10
2018-09-13T11:30:44.914Z,16.20
2018-09-13T11:31:44.730Z,14.90
2018-09-13T11:32:44.644Z,14.40
2018-09-13T11:33:44.557Z,15.30
2018-09-13T11:34:44.488Z,14.10
2018-09-13T11:35:44.387Z,14.60
2018-09-13T11:36:44.298Z,14.70
2018-09-13T11:37:44.212Z,14.60
2018-09-13T11:38:44.129Z,15.50
2018-09-13T11:39:44.116Z,15.50
2018-09-13T11:40:44.265Z,15.50
2018-09-13T11:41:43.869Z,15.40
2018-09-13T11:42:43.784Z,14.00
2018-09-13T11:43:43.700Z,14.70
2018-09-13T11:44:43.628Z,14.10
2018-09-13T11:45:43.533Z,14.10
2018-09-13T11:46:43.442Z,13.90
2018-09-13T11:47:43.361Z,14.10
2018-09-13T11:48:43.269Z,11.70
2018-09-13T11:49:43.205Z,12.80
2018-09-13T11:50:43.101Z,12.60
2018-09-13T11:51:43.017Z,12.80
2018-09-13T11:52:42.938Z,12.50
2018-09-13T11:53:42.846Z,12.90
2018-09-13T11:54:42.772Z,11.90
2018-09-13T11:55:42.698Z,14.40
2018-09-13T11:56:42.593Z,12.10
2018-09-13T11:57:42.508Z,11.70
2018-09-13T11:58:42.424Z,12.30
2018-09-13T11:59:42.345Z,12.00
2018-09-13T12:00:42.274Z,12.40
2018-09-13T12:01:42.175Z,12.50
2018-09-13T12:02:42.088Z,11.60
2018-09-13T12:03:42.005Z,11.60
2018-09-13T12:04:41.929Z,12.00
2018-09-13T12:05:41.851Z,11.30
2018-09-13T12:06:41.754Z,11.50
2018-09-13T12:07:41.665Z,11.10
2018-09-13T12:08:41.586Z,11.20
2018-09-13T12:09:41.500Z,11.50
2018-09-13T12:10:41.437Z,11.80
2018-09-13T12:11:41.329Z,11.30
2018-09-13T12:12:41.247Z,11.80
2018-09-13T12:13:41.159Z,14.70
2018-09-13T12:14:41.077Z,11.40
2018-09-13T12:15:41.010Z,12.20
2018-09-13T12:16:40.906Z,12.70
2018-09-13T12:17:40.825Z,12.10
2018-09-13T12:18:40.739Z,11.60
2018-09-13T12:19:40.657Z,11.60
2018-09-13T12:20:40.589Z,11.90
2018-09-13T12:21:40.486Z,12.50
2018-09-13T12:22:40.404Z,12.40
2018-09-13T12:23:40.320Z,12.80
2018-09-13T12:24:40.232Z,11.90
2018-09-13T12:25:40.166Z,13.20
2018-09-13T12:26:40.062Z,11.70
2018-09-13T12:27:40.060Z,12.30
2018-09-13T12:28:39.896Z,12.70
2018-09-13T12:29:39.912Z,14.40
2018-09-13T12:30:39.740Z,12.20
2018-09-13T12:31:39.643Z,11.80
2018-09-13T12:32:39.573Z,12.20
2018-09-13T12:33:39.527Z,11.40
2018-09-13T12:34:39.392Z,11.50
2018-09-13T12:35:39.322Z,11.90
2018-09-13T12:36:39.217Z,12.90
2018-09-13T12:37:39.138Z,12.70
2018-09-13T12:38:39.049Z,14.50
2018-09-13T12:39:38.966Z,14.20
2018-09-13T12:40:38.896Z,14.90
2018-09-13T12:41:38.797Z,15.40
2018-09-13T12:42:38.713Z,14.80
2018-09-13T12:43:38.740Z,14.60
2018-09-13T12:44:38.542Z,15.30
2018-09-13T12:45:38.476Z,16.80
2018-09-13T12:46:38.375Z,16.30
2018-09-13T12:47:38.291Z,15.90
2018-09-13T12:48:38.202Z,15.80
2018-09-13T12:49:38.119Z,15.90
2018-09-13T12:50:38.156Z,16.40
2018-09-13T12:51:37.959Z,18.60